WetterOnline ( https://www.wetteronline.de )

Wetter aktuell Hagen

Aktuelles Wetter: Lüdenscheid (392m)

6-stündlich | Neueste Meldungen
Ortszeit Temperatur Wetter
Di, 12.11. 7:00 2.8° C bewölkt
Di, 12.11. 1:00 3.2° C Sprühregen
Mo, 11.11. 19:00 2.6° C leichter Regen
Mo, 11.11. 13:00 4.1° C bewölkt
Mo, 11.11. 7:00 0.9° C bedeckt
Mo, 11.11. 1:00 -1.3° C wolkenlos
So, 10.11. 19:00 1.7° C wolkenlos
So, 10.11. 13:00 5.5° C wolkenlos
Ortszeit Temperatur Wetter
Di, 12.11. 11:10 3.6° C Sprühregen
Di, 12.11. 11:00 3.7° C bedeckt
Di, 12.11. 10:50 3.7° C bedeckt
Di, 12.11. 10:40 3.7° C leichter Regen
Di, 12.11. 10:30 3.5° C bedeckt
Di, 12.11. 10:20 3.5° C bedeckt
Di, 12.11. 10:00 3.2° C Sprühregen
Di, 12.11. 9:00 3.0° C bewölkt
Di, 12.11. 8:00 2.9° C bedeckt
Ortszeit Relative Feuchte Sichtweite
Di, 12.11. 7:00 89% 35 km
Di, 12.11. 1:00 95% 21 km
Mo, 11.11. 19:00 90% 11 km
Mo, 11.11. 13:00 81% 35 km
Mo, 11.11. 7:00 93% 26 km
Mo, 11.11. 1:00 96% 15 km
So, 10.11. 19:00 88% 35 km
So, 10.11. 13:00 80% 45 km
Ortszeit Relative Feuchte Sichtweite
Di, 12.11. 11:10 90% -
Di, 12.11. 11:00 86% 45 km
Di, 12.11. 10:50 86% -
Di, 12.11. 10:40 86% -
Di, 12.11. 10:30 88% 50 km
Di, 12.11. 10:20 88% -
Di, 12.11. 10:00 89% 30 km
Di, 12.11. 9:00 88% 50 km
Di, 12.11. 8:00 89% 40 km
Ortszeit Niederschlagsmenge Niederschlagsart
Di, 12.11. 7:00 2 l/m2 in 12 Std. Regen
Di, 12.11. 1:00 2 l/m2 in 6 Std. Regen
Mo, 11.11. 19:00 0.1 l/m2 in 12 Std. Regen
Mo, 11.11. 13:00 0.0 l/m2 in 6 Std. -
Mo, 11.11. 7:00 0.0 l/m2 in 12 Std. -
Mo, 11.11. 1:00 0.0 l/m2 in 6 Std. -
So, 10.11. 19:00 0.0 l/m2 in 12 Std. -
So, 10.11. 13:00 0.0 l/m2 in 6 Std. -
Ortszeit Niederschlagsmenge Niederschlagsart
Di, 12.11. 11:10 keine Meldung -
Di, 12.11. 11:00 0.1 l/m2 in 1 Std. Regen
Di, 12.11. 10:50 keine Meldung -
Di, 12.11. 10:40 keine Meldung -
Di, 12.11. 10:30 0.1 l/m2 in 1 Std. Schneeregen
Di, 12.11. 10:20 keine Meldung -
Di, 12.11. 10:00 0.1 l/m2 in 1 Std. Regen
Di, 12.11. 9:00 keine Meldung -
Di, 12.11. 8:00 keine Meldung -
Ortszeit Stärke Spitze Richtung
km/h Bft. km/h Grad Sektor
Di, 12.11. 7:00 15 3 35 210° SW
Di, 12.11. 1:00 14 3 36 220° SW
Mo, 11.11. 19:00 11 2 43 190° S
Mo, 11.11. 13:00 17 3 41 180° S
Mo, 11.11. 7:00 7 2 18 140° SO
Mo, 11.11. 1:00 11 2 18 220° SW
So, 10.11. 19:00 0 0 14 - -
So, 10.11. 13:00 6 1 7 90° O
Ortszeit Stärke Spitze Richtung
km/h Bft. km/h Grad Sektor
Di, 12.11. 11:10 11 2 - 200° S
Di, 12.11. 11:00 19 3 37 180° S
Di, 12.11. 10:50 19 3 - 180° S
Di, 12.11. 10:40 17 3 - 190° S
Di, 12.11. 10:30 14 3 32 200° S
Di, 12.11. 10:20 14 3 - 200° S
Di, 12.11. 10:00 14 3 32 210° SW
Di, 12.11. 9:00 14 3 36 220° SW
Di, 12.11. 8:00 11 2 32 210° SW
Ortszeit Untergrenze Bedeckung Gattung
total tief tief mittel hoch
Di, 12.11. 7:00 300 m 8/8 7/8 - - -
Di, 12.11. 1:00 210 m 8/8 8/8 - - -
Mo, 11.11. 19:00 300 m 7/8 7/8 - - -
Mo, 11.11. 13:00 450 m 7/8 7/8 - - -
Mo, 11.11. 7:00 240 m 8/8 8/8 - - -
Mo, 11.11. 1:00 - 0/8 0/8 - - -
So, 10.11. 19:00 - 0/8 0/8 - - -
So, 10.11. 13:00 - 0/8 0/8 - - -
Ortszeit Bedeckungsgrad in Achtel und Wolkenuntergrenze
Di, 12.11. 11:10 4(330m) 7(990m) 7(1200m)
Di, 12.11. 11:00 4(330m) 7(540m) 8(1260m)
Di, 12.11. 10:50 4(330m) 7(540m) 8(1260m)
Di, 12.11. 10:40 5(360m) 8(1290m) 8(1500m)
Di, 12.11. 10:30 4(360m) 7(540m) 8(720m)
Di, 12.11. 10:20 4(360m) 7(540m) 8(720m)
Di, 12.11. 10:00 5(330m) 7(540m) 8(720m)
Di, 12.11. 9:00 5(360m) 7(870m) 7(1110m)
Di, 12.11. 8:00 6(300m) 8(870m) 8(1500m)
Ortszeit Luftdruck NN (hPa) Tendenz (hPa in 3 Std.)
Di, 12.11. 7:00 1003 - 0,6
Di, 12.11. 1:00 1004 + 0,1
Mo, 11.11. 19:00 1004 - 0,5
Mo, 11.11. 13:00 1007 - 2,6
Mo, 11.11. 7:00 1012 - 2,0
Mo, 11.11. 1:00 1016 - 0,4
So, 10.11. 19:00 1016 + 1,2
So, 10.11. 13:00 1013 + 0,6
Ortszeit Luftdruck NN (hPa) Tendenz (hPa in 3 Std.)
Di, 12.11. 11:10 1003 keine Meldung
Di, 12.11. 11:00 1003 - 0,5
Di, 12.11. 10:50 1003 keine Meldung
Di, 12.11. 10:40 1003 keine Meldung
Di, 12.11. 10:30 1003 - 0,4
Di, 12.11. 10:20 1003 keine Meldung
Di, 12.11. 10:00 1003 - 0,4
Di, 12.11. 9:00 1003 - 0,1
Di, 12.11. 8:00 1003 - 0,6
Ortszeit Schneehöhe (cm)
Di, 12.11. 7:00 0
Di, 12.11. 1:00 0
Mo, 11.11. 19:00 0
Mo, 11.11. 13:00 0
Mo, 11.11. 7:00 0
Mo, 11.11. 1:00 0
So, 10.11. 19:00 0
So, 10.11. 13:00 0
Ortszeit Schneehöhe (cm)
Di, 12.11. 11:10 0
Di, 12.11. 11:00 0
Di, 12.11. 10:50 0
Di, 12.11. 10:40 0
Di, 12.11. 10:30 0
Di, 12.11. 10:20 0
Di, 12.11. 10:00 0
Di, 12.11. 9:00 -
Di, 12.11. 8:00 -
Link zu dieser Seite / Seite empfehlen

Das Wetter in ...